createdAt,value
2023-01-18T00:01:15.750Z,19.80
2023-01-18T00:03:43.530Z,20.50
2023-01-18T00:06:12.007Z,20.30
2023-01-18T00:08:42.373Z,19.00
2023-01-18T00:11:12.725Z,18.40
2023-01-18T00:13:40.906Z,19.40
2023-01-18T00:16:12.113Z,19.20
2023-01-18T00:18:40.145Z,19.00
2023-01-18T00:21:10.658Z,16.50
2023-01-18T00:23:38.937Z,17.10
2023-01-18T00:26:09.332Z,15.00
2023-01-18T00:28:38.712Z,15.20
2023-01-18T00:31:15.597Z,15.70
2023-01-18T00:33:44.755Z,16.40
2023-01-18T00:36:14.211Z,14.40
2023-01-18T00:38:42.715Z,14.90
2023-01-18T00:41:10.512Z,14.80
2023-01-18T00:43:41.785Z,15.00
2023-01-18T00:46:11.851Z,13.30
2023-01-18T00:48:44.375Z,17.20
2023-01-18T00:51:15.383Z,14.90
2023-01-18T00:53:44.796Z,15.90
2023-01-18T00:56:15.692Z,14.60
2023-01-18T00:58:44.133Z,15.00
2023-01-18T01:01:12.703Z,14.10
2023-01-18T01:03:59.512Z,13.50
2023-01-18T01:06:46.745Z,13.10
2023-01-18T01:09:20.445Z,12.60
2023-01-18T01:12:08.089Z,12.50
2023-01-18T01:14:57.424Z,13.60
2023-01-18T01:17:44.312Z,13.70
2023-01-18T01:20:31.261Z,15.60
2023-01-18T01:23:47.141Z,13.90
2023-01-18T01:26:15.027Z,12.70
2023-01-18T01:28:50.633Z,16.20
2023-01-18T01:31:19.500Z,15.70
2023-01-18T01:33:49.279Z,14.00
2023-01-18T01:36:22.015Z,14.10
2023-01-18T01:38:50.471Z,14.30
2023-01-18T01:41:27.734Z,13.20
2023-01-18T01:43:58.079Z,13.40
2023-01-18T01:46:32.861Z,12.70
2023-01-18T01:49:14.435Z,14.60
2023-01-18T01:51:44.576Z,14.60
2023-01-18T01:56:48.168Z,13.20
2023-01-18T01:59:17.063Z,13.80
2023-01-18T02:01:45.403Z,12.70
2023-01-18T02:04:13.316Z,12.20
2023-01-18T02:06:41.384Z,13.70
2023-01-18T02:09:13.093Z,15.20
2023-01-18T02:11:41.869Z,13.30
2023-01-18T02:14:13.205Z,13.30
2023-01-18T02:17:16.483Z,13.20
2023-01-18T02:20:26.108Z,13.10
2023-01-18T02:23:22.949Z,14.00
2023-01-18T02:25:50.875Z,13.80
2023-01-18T02:28:24.513Z,13.00
2023-01-18T02:31:15.513Z,13.70
2023-01-18T02:33:43.390Z,14.50
2023-01-18T02:36:36.760Z,13.80
2023-01-18T02:39:11.436Z,16.30
2023-01-18T02:42:02.943Z,15.40
2023-01-18T02:44:54.133Z,13.60
2023-01-18T02:47:23.472Z,14.40
2023-01-18T02:49:51.401Z,14.00
2023-01-18T02:52:42.840Z,14.70
2023-01-18T02:55:38.079Z,15.20
2023-01-18T02:58:12.861Z,13.60
2023-01-18T03:00:46.065Z,14.30
2023-01-18T03:03:15.388Z,14.60
2023-01-18T03:05:43.759Z,14.00
2023-01-18T03:08:25.630Z,15.10
2023-01-18T03:11:00.506Z,15.60
2023-01-18T03:14:05.468Z,14.80
2023-01-18T03:16:39.847Z,16.30
2023-01-18T03:19:32.793Z,14.60
2023-01-18T03:22:01.564Z,15.00
2023-01-18T03:24:30.684Z,15.60
2023-01-18T03:27:17.842Z,16.00
2023-01-18T03:30:05.418Z,15.90
2023-01-18T03:32:53.251Z,16.80
2023-01-18T03:35:27.073Z,16.00
2023-01-18T03:37:56.725Z,16.90
2023-01-18T03:40:28.589Z,15.70
2023-01-18T03:42:59.508Z,17.00
2023-01-18T03:45:33.168Z,17.60
2023-01-18T03:48:01.951Z,16.00
2023-01-18T03:50:39.772Z,16.90
2023-01-18T03:53:12.836Z,14.80
2023-01-18T03:55:49.079Z,17.80
2023-01-18T03:58:20.207Z,15.90
2023-01-18T04:00:48.156Z,15.90
2023-01-18T04:03:17.840Z,14.60
2023-01-18T04:05:45.750Z,14.70
2023-01-18T04:08:14.683Z,14.90
2023-01-18T04:10:42.550Z,16.40
2023-01-18T04:13:11.118Z,17.80
2023-01-18T04:15:39.081Z,17.60
2023-01-18T04:18:06.985Z,15.00
2023-01-18T04:20:35.031Z,15.80
2023-01-18T04:23:03.052Z,15.00
2023-01-18T04:25:31.067Z,14.50
2023-01-18T04:27:58.901Z,14.30
2023-01-18T04:30:27.525Z,15.30
2023-01-18T04:32:55.369Z,16.80
2023-01-18T04:35:26.198Z,18.50
2023-01-18T04:37:54.010Z,16.70
2023-01-18T04:40:21.981Z,15.80
2023-01-18T04:42:54.081Z,15.60
2023-01-18T04:45:22.164Z,15.00
2023-01-18T04:47:49.948Z,15.80
2023-01-18T04:50:17.898Z,16.70
2023-01-18T04:52:45.751Z,15.40
2023-01-18T04:55:15.441Z,14.00
2023-01-18T04:57:44.497Z,15.60
2023-01-18T05:00:15.671Z,17.40
2023-01-18T05:02:43.549Z,16.80
2023-01-18T05:05:11.684Z,15.70
2023-01-18T05:07:39.660Z,15.30
2023-01-18T05:10:07.794Z,15.50
2023-01-18T05:12:35.693Z,14.80
2023-01-18T05:15:05.977Z,15.10
2023-01-18T05:17:35.256Z,15.20
2023-01-18T05:20:06.471Z,15.10
2023-01-18T05:22:34.666Z,14.60
2023-01-18T05:25:06.214Z,16.10
2023-01-18T05:27:34.398Z,15.90
2023-01-18T05:30:02.370Z,15.90
2023-01-18T05:32:30.190Z,15.70
2023-01-18T05:34:58.007Z,16.10
2023-01-18T05:37:27.227Z,16.30
2023-01-18T05:39:55.081Z,18.60
2023-01-18T05:42:22.950Z,17.70
2023-01-18T05:44:50.850Z,14.80
2023-01-18T05:47:18.681Z,16.40
2023-01-18T05:49:46.937Z,17.60
2023-01-18T05:52:14.839Z,17.20
2023-01-18T05:54:42.638Z,18.70
2023-01-18T05:57:11.081Z,19.00
2023-01-18T05:59:39.107Z,24.10
2023-01-18T06:02:06.974Z,24.10
2023-01-18T06:04:34.934Z,35.60
2023-01-18T06:07:02.792Z,23.00
2023-01-18T06:09:30.567Z,17.60
2023-01-18T06:11:58.423Z,19.50
2023-01-18T06:14:26.232Z,19.80
2023-01-18T06:16:54.014Z,17.40
2023-01-18T06:19:22.008Z,16.90
2023-01-18T06:21:49.943Z,15.60
2023-01-18T06:24:17.737Z,13.60
2023-01-18T06:26:45.561Z,14.00
2023-01-18T06:29:13.697Z,14.10
2023-01-18T06:31:41.588Z,14.00
2023-01-18T06:34:09.553Z,14.00
2023-01-18T06:36:38.765Z,14.00
2023-01-18T06:39:06.797Z,15.20
2023-01-18T06:41:34.788Z,17.40
2023-01-18T06:44:02.870Z,13.90
2023-01-18T06:46:30.809Z,13.60
2023-01-18T06:48:58.692Z,14.00
2023-01-18T06:51:26.523Z,13.90
2023-01-18T06:53:54.356Z,14.30
2023-01-18T06:56:22.402Z,13.70
2023-01-18T06:58:52.107Z,11.30
2023-01-18T07:01:20.042Z,14.10
2023-01-18T07:03:48.084Z,14.00
2023-01-18T07:06:16.047Z,11.30
2023-01-18T07:08:44.292Z,11.80
2023-01-18T07:11:13.294Z,10.30
2023-01-18T07:13:43.664Z,11.10
2023-01-18T07:16:18.474Z,10.30
2023-01-18T07:18:48.401Z,10.80
2023-01-18T07:21:17.638Z,12.80
2023-01-18T07:23:45.567Z,13.30
2023-01-18T07:26:16.559Z,11.60
2023-01-18T07:28:45.854Z,11.70
2023-01-18T07:31:14.358Z,11.10
2023-01-18T07:33:42.555Z,10.20
2023-01-18T07:36:11.391Z,10.80
2023-01-18T07:38:39.649Z,9.60
2023-01-18T07:41:09.698Z,10.70
2023-01-18T07:44:24.327Z,9.80
2023-01-18T07:46:52.123Z,11.30
2023-01-18T07:49:19.977Z,10.70
2023-01-18T07:51:47.765Z,9.50
2023-01-18T07:54:17.315Z,9.60
2023-01-18T07:56:45.426Z,9.20
2023-01-18T07:59:13.601Z,8.00
2023-01-18T08:01:41.496Z,8.90
2023-01-18T08:04:09.594Z,9.40
2023-01-18T08:06:37.508Z,10.70
2023-01-18T08:09:05.665Z,9.80
2023-01-18T08:11:33.457Z,11.30
2023-01-18T08:14:01.316Z,9.90
2023-01-18T08:16:29.478Z,8.90
2023-01-18T08:18:57.320Z,9.50
2023-01-18T08:21:25.152Z,9.00
2023-01-18T08:23:53.839Z,9.00
2023-01-18T08:26:21.739Z,8.60
2023-01-18T08:28:49.622Z,8.70
2023-01-18T08:31:20.039Z,9.80
2023-01-18T08:33:48.955Z,8.70
2023-01-18T08:36:21.990Z,9.20
2023-01-18T08:41:24.014Z,8.80
2023-01-18T08:43:52.605Z,9.20
2023-01-18T08:46:21.041Z,9.30
2023-01-18T08:48:50.624Z,8.90
2023-01-18T08:51:18.909Z,10.30
2023-01-18T08:53:46.758Z,9.60
2023-01-18T08:56:14.852Z,9.30
2023-01-18T08:58:42.610Z,9.60
2023-01-18T09:01:10.833Z,10.20
2023-01-18T09:03:38.640Z,9.40
2023-01-18T09:06:12.913Z,9.60
2023-01-18T09:08:41.082Z,9.10
2023-01-18T09:11:10.498Z,9.30
2023-01-18T09:13:54.659Z,11.90
2023-01-18T09:16:28.378Z,11.00
2023-01-18T09:18:56.690Z,11.30
2023-01-18T09:21:24.485Z,10.80
2023-01-18T09:23:52.380Z,11.90
2023-01-18T09:26:21.294Z,11.60
2023-01-18T09:28:53.809Z,10.80
2023-01-18T09:31:24.005Z,12.30
2023-01-18T09:33:53.930Z,11.20
2023-01-18T09:36:26.865Z,13.50
2023-01-18T09:38:58.198Z,13.50
2023-01-18T09:41:33.456Z,12.10
2023-01-18T09:44:09.084Z,12.00
2023-01-18T09:46:39.345Z,12.50
2023-01-18T09:49:26.581Z,11.90
2023-01-18T09:55:01.266Z,11.40
2023-01-18T09:58:00.291Z,12.30
2023-01-18T10:00:31.426Z,13.10
2023-01-18T10:03:08.552Z,11.30
2023-01-18T10:05:43.409Z,11.90
2023-01-18T10:17:01.096Z,12.30
2023-01-18T10:19:31.031Z,14.50
2023-01-18T10:22:08.688Z,15.10
2023-01-18T10:24:36.613Z,14.10
2023-01-18T10:27:36.777Z,13.30
2023-01-18T10:30:12.678Z,13.20
2023-01-18T10:32:44.277Z,13.50
2023-01-18T10:35:37.108Z,12.40
2023-01-18T10:38:08.662Z,12.10
2023-01-18T10:40:37.980Z,11.90
2023-01-18T10:43:10.575Z,12.70
2023-01-18T10:45:38.458Z,11.80
2023-01-18T10:48:20.436Z,12.20
2023-01-18T10:50:53.240Z,12.00
2023-01-18T10:56:02.114Z,12.00
2023-01-18T10:58:34.019Z,12.00
2023-01-18T11:01:03.986Z,12.20
2023-01-18T11:03:38.570Z,10.50
2023-01-18T11:06:07.379Z,12.50
2023-01-18T11:08:36.161Z,11.50
2023-01-18T11:11:07.768Z,11.90
2023-01-18T11:13:42.767Z,10.80
2023-01-18T11:16:15.656Z,11.00
2023-01-18T11:18:56.715Z,11.30
2023-01-18T11:21:25.752Z,10.20
2023-01-18T11:23:55.321Z,11.20
2023-01-18T11:26:23.607Z,12.40
2023-01-18T11:29:00.259Z,11.60
2023-01-18T11:31:31.058Z,10.40
2023-01-18T11:34:04.521Z,10.20
2023-01-18T11:36:37.286Z,10.10
2023-01-18T11:39:37.701Z,10.50
2023-01-18T11:42:35.107Z,10.40
2023-01-18T11:45:22.613Z,10.80
2023-01-18T11:47:53.534Z,10.00
2023-01-18T11:50:35.209Z,10.80
2023-01-18T11:53:45.466Z,13.00
2023-01-18T11:57:00.106Z,8.70
2023-01-18T11:59:31.908Z,8.90
2023-01-18T12:02:08.601Z,8.90
2023-01-18T12:05:14.773Z,8.90
2023-01-18T12:08:16.877Z,9.10
2023-01-18T12:11:02.837Z,10.30
2023-01-18T12:13:39.603Z,11.80
2023-01-18T12:16:21.900Z,12.10
2023-01-18T12:19:19.473Z,10.70
2023-01-18T12:21:53.254Z,9.40
2023-01-18T12:24:45.831Z,9.00
2023-01-18T12:27:37.027Z,9.80
2023-01-18T12:30:19.861Z,10.40
2023-01-18T12:32:57.677Z,10.60
2023-01-18T12:35:48.464Z,12.20
2023-01-18T12:38:18.514Z,12.70
2023-01-18T12:40:54.217Z,11.80
2023-01-18T12:43:30.953Z,11.00
2023-01-18T12:46:10.712Z,10.40
2023-01-18T12:48:48.285Z,10.70
2023-01-18T12:51:18.910Z,11.90
2023-01-18T12:53:58.898Z,11.80
2023-01-18T12:56:34.361Z,12.00
2023-01-18T12:59:17.119Z,13.10
2023-01-18T13:01:52.340Z,11.60
2023-01-18T13:04:36.612Z,11.90
2023-01-18T13:07:08.014Z,11.90
2023-01-18T13:09:40.920Z,11.40
2023-01-18T13:12:09.734Z,11.10
2023-01-18T13:14:45.780Z,12.00
2023-01-18T13:17:29.109Z,12.20
2023-01-18T13:20:05.012Z,14.40
2023-01-18T13:22:59.818Z,11.60
2023-01-18T13:25:36.230Z,12.60
2023-01-18T13:28:12.842Z,12.10
2023-01-18T13:31:07.106Z,12.00
2023-01-18T13:33:41.057Z,11.60
2023-01-18T13:36:11.990Z,12.00
2023-01-18T13:38:55.117Z,11.60
2023-01-18T13:41:25.517Z,14.50
2023-01-18T13:44:02.189Z,14.60
2023-01-18T13:46:33.986Z,14.10
2023-01-18T13:49:38.029Z,12.70
2023-01-18T13:52:30.569Z,14.00
2023-01-18T13:55:05.316Z,14.20
2023-01-18T13:57:34.496Z,13.10
2023-01-18T14:00:03.873Z,14.80
2023-01-18T14:02:43.348Z,14.20
2023-01-18T14:05:25.349Z,15.80
2023-01-18T14:07:57.109Z,16.00
2023-01-18T14:10:25.611Z,14.30
2023-01-18T14:12:55.525Z,16.00
2023-01-18T14:15:30.568Z,14.00
2023-01-18T14:17:59.407Z,13.60
2023-01-18T14:20:49.046Z,12.30
2023-01-18T14:23:32.406Z,13.50
2023-01-18T14:26:06.725Z,14.70
2023-01-18T14:28:41.531Z,14.50
2023-01-18T14:31:17.312Z,13.80
2023-01-18T14:33:45.399Z,13.20
2023-01-18T14:36:25.124Z,14.50
2023-01-18T14:39:13.067Z,13.30
2023-01-18T14:41:43.828Z,12.50
2023-01-18T14:44:56.992Z,13.80
2023-01-18T14:47:29.981Z,15.10
2023-01-18T14:49:58.457Z,15.20
2023-01-18T14:52:30.229Z,16.10
2023-01-18T14:54:58.113Z,14.40
2023-01-18T14:57:26.068Z,15.80
2023-01-18T14:59:57.039Z,13.50
2023-01-18T15:02:27.790Z,13.00
2023-01-18T15:05:17.867Z,13.50
2023-01-18T15:07:54.041Z,15.80
2023-01-18T15:10:23.126Z,15.30
2023-01-18T15:12:54.832Z,14.40
2023-01-18T15:15:28.717Z,13.40
2023-01-18T15:18:03.041Z,12.30
2023-01-18T15:20:30.949Z,14.10
2023-01-18T15:22:59.122Z,15.50
2023-01-18T15:25:30.732Z,16.50
2023-01-18T15:28:11.870Z,21.30
2023-01-18T15:30:48.970Z,18.30
2023-01-18T15:33:17.153Z,17.50
2023-01-18T15:35:47.935Z,17.20
2023-01-18T15:38:17.236Z,22.70
2023-01-18T15:41:14.860Z,17.50
2023-01-18T15:43:44.621Z,15.70
2023-01-18T15:46:14.558Z,18.30
2023-01-18T15:48:49.716Z,20.20
2023-01-18T15:51:20.347Z,19.90
2023-01-18T15:53:56.321Z,17.60
2023-01-18T15:56:27.004Z,16.60
2023-01-18T15:58:56.064Z,15.10
2023-01-18T16:01:29.280Z,18.00
2023-01-18T16:03:59.365Z,20.10
2023-01-18T16:06:29.805Z,19.20
2023-01-18T16:09:16.200Z,31.10
2023-01-18T16:11:47.680Z,26.80
2023-01-18T16:14:32.563Z,21.40
2023-01-18T16:17:12.491Z,21.20
2023-01-18T16:19:53.618Z,35.00
2023-01-18T16:22:27.772Z,37.90
2023-01-18T16:25:01.601Z,25.10
2023-01-18T16:27:31.755Z,22.80
2023-01-18T16:30:00.715Z,22.30
2023-01-18T16:32:33.948Z,20.70
2023-01-18T16:35:14.103Z,30.70
2023-01-18T16:37:44.745Z,27.10
2023-01-18T16:40:21.354Z,19.30
2023-01-18T16:43:01.787Z,19.90
2023-01-18T16:45:31.956Z,34.30
2023-01-18T16:48:00.230Z,33.00
2023-01-18T16:50:28.516Z,38.00
2023-01-18T16:52:56.372Z,38.60
2023-01-18T16:55:24.265Z,40.20
2023-01-18T16:57:52.475Z,37.20
2023-01-18T17:00:23.886Z,40.80
2023-01-18T17:02:53.571Z,27.20
2023-01-18T17:05:21.651Z,25.10
2023-01-18T17:07:50.833Z,21.70
2023-01-18T17:10:29.741Z,22.80
2023-01-18T17:13:00.321Z,20.80
2023-01-18T17:15:30.909Z,18.80
2023-01-18T17:17:59.275Z,19.90
2023-01-18T17:20:28.052Z,19.00
2023-01-18T17:22:56.099Z,17.70
2023-01-18T17:25:24.563Z,17.20
2023-01-18T17:27:52.637Z,17.10
2023-01-18T17:30:22.103Z,15.80
2023-01-18T17:32:50.837Z,19.80
2023-01-18T17:35:21.888Z,19.50
2023-01-18T17:37:57.382Z,18.70
2023-01-18T17:40:40.119Z,15.80
2023-01-18T17:43:17.367Z,16.00
2023-01-18T17:45:59.888Z,18.60
2023-01-18T17:48:28.704Z,18.30
2023-01-18T17:50:57.039Z,17.90
2023-01-18T17:53:26.086Z,22.20
2023-01-18T17:55:54.203Z,22.00
2023-01-18T17:58:22.579Z,20.20
2023-01-18T18:00:50.570Z,19.40
2023-01-18T18:03:18.529Z,17.70
2023-01-18T18:05:46.464Z,19.20
2023-01-18T18:08:14.438Z,18.60
2023-01-18T18:10:43.873Z,22.00
2023-01-18T18:13:11.650Z,18.90
2023-01-18T18:15:46.940Z,21.30
2023-01-18T18:18:30.059Z,22.30
2023-01-18T18:21:03.719Z,19.10
2023-01-18T18:23:32.167Z,19.50
2023-01-18T18:26:04.819Z,18.20
2023-01-18T18:28:33.486Z,18.90
2023-01-18T18:31:01.770Z,18.70
2023-01-18T18:33:30.089Z,17.90
2023-01-18T18:35:58.131Z,21.30
2023-01-18T18:38:27.436Z,21.20
2023-01-18T18:41:03.094Z,23.60
2023-01-18T18:43:31.253Z,21.00
2023-01-18T18:45:59.069Z,22.10
2023-01-18T18:48:27.051Z,22.20
2023-01-18T18:50:54.870Z,20.30
2023-01-18T18:53:29.621Z,18.40
2023-01-18T18:56:12.330Z,18.00
2023-01-18T18:58:40.628Z,21.80
2023-01-18T19:01:19.031Z,20.90
2023-01-18T19:03:48.607Z,20.00
2023-01-18T19:06:19.641Z,20.20
2023-01-18T19:08:47.874Z,20.10
2023-01-18T19:11:16.512Z,19.40
2023-01-18T19:13:45.813Z,22.00
2023-01-18T19:16:14.967Z,20.40
2023-01-18T19:18:43.215Z,25.60
2023-01-18T19:21:11.577Z,26.70
2023-01-18T19:23:39.816Z,25.80
2023-01-18T19:26:07.683Z,23.00
2023-01-18T19:28:36.411Z,26.10
2023-01-18T19:31:05.933Z,28.80
2023-01-18T19:33:34.210Z,23.20
2023-01-18T19:36:14.534Z,22.80
2023-01-18T19:38:46.162Z,27.90
2023-01-18T19:41:15.891Z,25.90
2023-01-18T19:43:44.571Z,24.50
2023-01-18T19:46:15.339Z,23.50
2023-01-18T19:48:43.968Z,24.50
2023-01-18T19:51:21.653Z,26.20
2023-01-18T19:53:53.161Z,23.10
2023-01-18T19:56:22.427Z,22.40
2023-01-18T19:58:50.842Z,25.50
2023-01-18T20:01:34.763Z,25.50
2023-01-18T20:04:05.210Z,23.40
2023-01-18T20:06:34.258Z,24.30
2023-01-18T20:09:04.038Z,24.50
2023-01-18T20:11:33.485Z,24.70
2023-01-18T20:14:01.893Z,20.90
2023-01-18T20:16:29.852Z,23.00
2023-01-18T20:18:58.080Z,21.00
2023-01-18T20:21:26.645Z,23.90
2023-01-18T20:23:57.897Z,25.10
2023-01-18T20:26:35.817Z,24.80
2023-01-18T20:29:08.683Z,23.20
2023-01-18T20:31:37.837Z,23.00
2023-01-18T20:34:06.685Z,22.40
2023-01-18T20:36:36.354Z,23.00
2023-01-18T20:39:05.445Z,23.40
2023-01-18T20:41:33.640Z,24.60
2023-01-18T20:44:01.805Z,26.00
2023-01-18T20:46:29.798Z,26.60
2023-01-18T20:48:58.526Z,25.60
2023-01-18T20:51:27.334Z,23.30
2023-01-18T20:53:55.335Z,23.20
2023-01-18T20:56:29.217Z,25.40
2023-01-18T20:58:58.441Z,24.30
2023-01-18T21:01:32.273Z,23.90
2023-01-18T21:04:02.559Z,26.80
2023-01-18T21:06:31.489Z,26.70
2023-01-18T21:09:00.457Z,27.30
2023-01-18T21:11:28.768Z,25.90
2023-01-18T21:13:59.264Z,25.60
2023-01-18T21:16:28.056Z,22.90
2023-01-18T21:18:57.034Z,23.30
2023-01-18T21:21:26.912Z,24.70
2023-01-18T21:23:54.752Z,23.20
2023-01-18T21:26:23.258Z,25.50
2023-01-18T21:28:51.343Z,23.50
2023-01-18T21:31:19.336Z,23.90
2023-01-18T21:33:48.632Z,22.70
2023-01-18T21:36:22.225Z,22.20
2023-01-18T21:38:50.920Z,24.60
2023-01-18T21:41:37.777Z,21.90
2023-01-18T21:44:24.589Z,21.80
2023-01-18T21:46:52.947Z,24.40
2023-01-18T21:50:04.132Z,23.50
2023-01-18T21:52:48.050Z,24.30
2023-01-18T21:55:17.499Z,22.20
2023-01-18T21:57:45.586Z,22.10
2023-01-18T22:00:14.053Z,20.30
2023-01-18T22:02:42.068Z,20.60
2023-01-18T22:05:10.199Z,23.30
2023-01-18T22:07:38.175Z,20.50
2023-01-18T22:10:07.224Z,24.10
2023-01-18T22:12:38.899Z,25.10
2023-01-18T22:15:07.486Z,21.80
2023-01-18T22:17:35.292Z,23.40
2023-01-18T22:20:04.598Z,22.90
2023-01-18T22:22:33.096Z,21.20
2023-01-18T22:25:02.295Z,20.80
2023-01-18T22:27:30.445Z,20.00
2023-01-18T22:29:58.737Z,22.40
2023-01-18T22:32:26.601Z,23.20
2023-01-18T22:34:55.121Z,25.40
2023-01-18T22:37:24.726Z,24.10
2023-01-18T22:39:52.519Z,20.20
2023-01-18T22:42:20.414Z,21.80
2023-01-18T22:44:48.827Z,21.60
2023-01-18T22:47:16.710Z,21.50
2023-01-18T22:49:44.531Z,20.70
2023-01-18T22:52:12.726Z,19.60
2023-01-18T22:54:40.566Z,23.00
2023-01-18T22:57:08.376Z,23.20
2023-01-18T22:59:37.053Z,22.60
2023-01-18T23:02:04.922Z,23.40
2023-01-18T23:04:34.432Z,21.80
2023-01-18T23:07:03.038Z,21.00
2023-01-18T23:09:30.879Z,20.80
2023-01-18T23:11:58.706Z,20.00
2023-01-18T23:14:45.626Z,22.70
2023-01-18T23:17:32.385Z,23.90
2023-01-18T23:20:00.607Z,59.50
2023-01-18T23:22:28.770Z,71.20
2023-01-18T23:24:56.532Z,44.70
2023-01-18T23:27:24.935Z,40.60
2023-01-18T23:29:58.692Z,26.80
2023-01-18T23:32:30.805Z,21.80
2023-01-18T23:34:59.573Z,23.10
2023-01-18T23:37:28.045Z,25.30
2023-01-18T23:40:14.771Z,24.40
2023-01-18T23:43:02.285Z,24.60
2023-01-18T23:45:49.020Z,23.80
2023-01-18T23:48:37.304Z,20.60
2023-01-18T23:51:23.769Z,23.10
2023-01-18T23:54:10.435Z,20.50
2023-01-18T23:56:38.533Z,21.20
2023-01-18T23:59:06.873Z,24.90
